Time;durP1;ratioP1;P1;durP2;ratioP2;P2;SDS_P1;SDS_P2;PMS_P1;PMS_P2;Temp;Humidity;BMP_temperature;BMP_pressure;BME280_temperature;BME280_humidity;BME280_pressure;Samples;Min_cycle;Max_cycle;Signal;HPM_P1;HPM_P2
2024/04/17 00:00:22;;;;;;;26.33;9.47;;;6.00;1.00;;;;;;5529656;25;20821;-61
2024/04/17 00:02:49;;;;;;;19.83;8.77;;;5.90;1.00;;;;;;5529625;25;20745;-62
2024/04/17 00:05:18;;;;;;;18.93;10.20;;;5.90;1.00;;;;;;5529990;25;20442;-61
2024/04/17 00:07:44;;;;;;;26.07;11.37;;;5.80;1.00;;;;;;5529216;25;20455;-61
2024/04/17 00:10:13;;;;;;;16.83;12.37;;;5.70;74.10;;;;;;5529288;25;20396;-61
2024/04/17 00:12:39;;;;;;;26.50;11.93;;;5.70;99.90;;;;;;5529395;25;20705;-61
2024/04/17 00:15:11;;;;;;;22.30;12.43;;;5.70;99.90;;;;;;5529524;25;20935;-62
2024/04/17 00:17:37;;;;;;;20.20;14.23;;;5.60;99.90;;;;;;5528999;25;20451;-61
2024/04/17 00:20:06;;;;;;;20.03;14.07;;;5.60;99.90;;;;;;5528140;25;20457;-62
2024/04/17 00:22:32;;;;;;;22.33;13.93;;;5.50;99.90;;;;;;5529161;25;20447;-61
2024/04/17 00:25:01;;;;;;;27.43;16.80;;;5.50;99.90;;;;;;5529479;25;20467;-61
2024/04/17 00:27:28;;;;;;;33.23;16.17;;;5.50;99.90;;;;;;5529316;25;21091;-61
2024/04/17 00:29:56;;;;;;;28.20;16.00;;;5.40;99.90;;;;;;5529024;25;20719;-61
2024/04/17 00:32:26;;;;;;;22.83;15.90;;;5.40;99.90;;;;;;5528818;25;20451;-62
2024/04/17 00:34:54;;;;;;;25.33;16.93;;;5.40;99.90;;;;;;5529136;25;20537;-62
2024/04/17 00:37:21;;;;;;;25.33;16.07;;;5.30;99.90;;;;;;5528979;25;20545;-61
2024/04/17 00:39:50;;;;;;;24.33;16.07;;;5.30;1.00;;;;;;5528699;25;20373;-61
2024/04/17 00:42:16;;;;;;;22.40;14.40;;;5.30;1.00;;;;;;5528883;25;20392;-61
2024/04/17 00:44:45;;;;;;;30.27;15.70;;;5.20;1.00;;;;;;5529021;25;20727;-61
2024/04/17 00:47:11;;;;;;;19.30;14.87;;;5.20;69.00;;;;;;5528973;25;20391;-62
2024/04/17 00:49:43;;;;;;;23.87;13.90;;;5.10;99.90;;;;;;5528981;25;20451;-62
2024/04/17 00:52:10;;;;;;;24.03;14.40;;;5.10;1.00;;;;;;5528761;25;20392;-61
2024/04/17 00:54:39;;;;;;;21.90;14.53;;;5.00;1.00;;;;;;5528697;25;20396;-61
2024/04/17 00:57:06;;;;;;;23.07;13.97;;;5.00;1.00;;;;;;5528764;25;20446;-62
2024/04/17 00:59:35;;;;;;;24.03;13.73;;;5.00;1.00;;;;;;5529055;25;20407;-62
2024/04/17 01:02:02;;;;;;;21.67;14.47;;;4.90;99.90;;;;;;5528433;25;20474;-61
2024/04/17 01:04:31;;;;;;;20.37;12.97;;;4.90;99.90;;;;;;5528896;25;20524;-62
2024/04/17 01:07:00;;;;;;;26.63;15.30;;;4.90;99.90;;;;;;5528584;25;20384;-62
2024/04/17 01:09:29;;;;;;;22.97;15.40;;;4.80;99.90;;;;;;5528919;25;20389;-62
2024/04/17 01:11:55;;;;;;;23.00;16.20;;;4.80;28.10;;;;;;5528345;25;20900;-62
2024/04/17 01:14:24;;;;;;;25.10;17.47;;;4.80;99.90;;;;;;5528600;25;20471;-62
2024/04/17 01:16:50;;;;;;;24.80;16.33;;;4.70;99.90;;;;;;5528500;25;20390;-61
2024/04/17 01:19:20;;;;;;;27.43;16.60;;;4.70;99.90;;;;;;5528446;25;20420;-62
2024/04/17 01:21:46;;;;;;;26.43;16.97;;;4.70;1.00;;;;;;5528228;25;20407;-62
2024/04/17 01:24:18;;;;;;;27.23;14.33;;;4.70;1.00;;;;;;5528187;25;20510;-62
2024/04/17 01:26:44;;;;;;;19.97;15.73;;;4.70;1.00;;;;;;5528424;25;20974;-62
2024/04/17 01:29:13;;;;;;;25.57;16.70;;;4.60;1.00;;;;;;5528255;25;20404;-61
2024/04/17 01:31:39;;;;;;;26.13;15.37;;;4.60;99.90;;;;;;5530173;25;20395;-62
2024/04/17 01:34:08;;;;;;;29.70;15.87;;;4.50;1.00;;;;;;5530209;25;20495;-62
2024/04/17 01:36:35;;;;;;;24.27;15.60;;;4.50;86.50;;;;;;5530360;25;21010;-62
2024/04/17 01:39:03;;;;;;;24.00;14.77;;;4.50;1.00;;;;;;5529346;25;20403;-62
2024/04/17 01:41:33;;;;;;;30.13;16.17;;;4.50;1.00;;;;;;5529537;25;20400;-62
2024/04/17 01:44:01;;;;;;;25.30;14.23;;;4.40;82.20;;;;;;5528859;25;20804;-62
2024/04/17 01:46:28;;;;;;;20.60;13.23;;;4.40;3.50;;;;;;5529034;25;20496;-63
2024/04/17 01:48:57;;;;;;;18.20;13.10;;;4.30;7.00;;;;;;5528967;25;20511;-61
2024/04/17 01:51:23;;;;;;;20.67;12.83;;;4.30;34.70;;;;;;5529112;25;20388;-62
2024/04/17 01:53:52;;;;;;;21.90;12.77;;;4.30;2.30;;;;;;5528667;25;20498;-62
2024/04/17 01:56:18;;;;;;;21.30;11.47;;;4.20;1.00;;;;;;5529334;25;20451;-62
2024/04/17 01:58:50;;;;;;;18.37;12.53;;;4.20;53.30;;;;;;5529575;25;20813;-62
2024/04/17 02:01:16;;;;;;;26.80;11.13;;;4.10;1.70;;;;;;5531830;25;20392;-63
2024/04/17 02:03:45;;;;;;;19.50;12.20;;;4.10;99.90;;;;;;5532037;25;20455;-62
2024/04/17 02:06:11;;;;;;;23.27;12.37;;;4.10;99.90;;;;;;5531474;25;20510;-62
2024/04/17 02:08:40;;;;;;;24.63;12.43;;;4.00;99.90;;;;;;5531608;25;20566;-62
2024/04/17 02:11:06;;;;;;;17.53;11.03;;;4.00;99.90;;;;;;5531745;25;20459;-62
2024/04/17 02:13:35;;;;;;;15.77;11.77;;;4.00;99.90;;;;;;5531691;25;20731;-62
2024/04/17 02:16:05;;;;;;;21.07;11.30;;;3.90;99.90;;;;;;5531327;25;20421;-62
2024/04/17 02:18:33;;;;;;;17.47;10.37;;;3.80;99.90;;;;;;5531297;26;20395;-62
2024/04/17 02:21:01;;;;;;;15.70;9.77;;;3.80;99.90;;;;;;5531375;25;20444;-61
2024/04/17 02:23:29;;;;;;;17.13;10.70;;;3.80;99.90;;;;;;5531292;25;20450;-62
2024/04/17 02:25:56;;;;;;;16.80;9.53;;;3.80;1.00;;;;;;5531282;25;20455;-62
2024/04/17 02:28:25;;;;;;;21.70;9.70;;;3.80;1.00;;;;;;5531657;25;20494;-62
2024/04/17 02:30:51;;;;;;;14.67;10.63;;;3.80;1.00;;;;;;5531397;25;20554;-62
2024/04/17 02:33:23;;;;;;;20.20;11.70;;;3.80;1.00;;;;;;5531591;25;20987;-62
2024/04/17 02:35:49;;;;;;;20.20;11.50;;;3.70;1.00;;;;;;5530988;25;20737;-61
2024/04/17 02:38:19;;;;;;;19.90;9.40;;;3.70;1.00;;;;;;5530899;25;20475;-61
2024/04/17 02:40:45;;;;;;;18.43;10.10;;;3.70;1.00;;;;;;5530842;25;20408;-61
2024/04/17 02:43:14;;;;;;;15.83;7.77;;;3.70;1.00;;;;;;5530770;25;20407;-61
2024/04/17 02:45:40;;;;;;;17.30;8.53;;;3.70;99.90;;;;;;5531123;25;20454;-62
2024/04/17 02:48:10;;;;;;;18.30;8.70;;;3.70;99.90;;;;;;5531391;25;20493;-62
2024/04/17 02:50:41;;;;;;;11.60;7.10;;;3.70;99.90;;;;;;5531491;25;20458;-62
2024/04/17 02:53:10;;;;;;;14.80;7.87;;;3.70;99.90;;;;;;5531164;25;20392;-62
2024/04/17 02:55:36;;;;;;;21.30;7.47;;;3.70;99.90;;;;;;5531095;25;20500;-61
2024/04/17 02:58:05;;;;;;;18.77;8.10;;;3.70;99.90;;;;;;5531016;25;20903;-61
2024/04/17 03:00:31;;;;;;;15.30;7.23;;;3.70;99.90;;;;;;5531180;25;20463;-61
2024/04/17 03:03:04;;;;;;;22.53;8.93;;;3.70;99.90;;;;;;5531184;25;20454;-61
2024/04/17 03:05:33;;;;;;;16.27;7.77;;;3.70;99.90;;;;;;5531289;25;20563;-60
2024/04/17 03:08:05;;;;;;;13.53;7.77;;;3.60;99.90;;;;;;5531023;25;20397;-61
2024/04/17 03:10:31;;;;;;;15.57;6.70;;;3.60;99.90;;;;;;5531157;25;20495;-61
2024/04/17 03:13:00;;;;;;;11.90;7.57;;;3.60;99.90;;;;;;5531166;25;20546;-61
2024/04/17 03:15:27;;;;;;;19.87;7.90;;;3.60;99.90;;;;;;5531077;25;20506;-60
2024/04/17 03:17:55;;;;;;;18.43;8.80;;;3.60;99.90;;;;;;5530720;25;20881;-60
2024/04/17 03:20:21;;;;;;;15.13;7.40;;;3.60;99.90;;;;;;5531031;25;20742;-60
2024/04/17 03:22:52;;;;;;;17.30;8.10;;;3.60;99.90;;;;;;5531049;25;20875;-60
2024/04/17 03:25:21;;;;;;;16.80;8.20;;;3.50;99.90;;;;;;5530824;25;20473;-60
2024/04/17 03:27:50;;;;;;;20.80;9.47;;;3.50;99.90;;;;;;5530486;25;20789;-60
2024/04/17 03:30:16;;;;;;;18.80;9.60;;;3.50;99.90;;;;;;5530725;25;20458;-59
2024/04/17 03:32:45;;;;;;;17.47;7.73;;;3.50;99.90;;;;;;5530560;25;20800;-59
2024/04/17 03:35:11;;;;;;;16.27;8.40;;;3.50;99.90;;;;;;5531068;25;20392;-59
2024/04/17 03:37:40;;;;;;;20.67;8.30;;;3.50;99.90;;;;;;5530082;25;20428;-59
2024/04/17 03:40:08;;;;;;;17.57;8.33;;;3.50;99.90;;;;;;5530410;25;20518;-59
2024/04/17 03:42:39;;;;;;;21.90;10.60;;;3.50;99.90;;;;;;5530349;25;20459;-59
2024/04/17 03:45:09;;;;;;;18.50;8.87;;;3.50;99.90;;;;;;5530523;25;20499;-60
2024/04/17 03:47:39;;;;;;;20.90;9.00;;;3.60;99.90;;;;;;5530535;25;20447;-60
2024/04/17 03:50:05;;;;;;;15.40;8.50;;;3.60;99.90;;;;;;5530539;25;20572;-59
2024/04/17 03:52:34;;;;;;;13.20;7.83;;;3.60;99.90;;;;;;5529431;25;20448;-59
2024/04/17 03:55:00;;;;;;;22.50;8.83;;;3.60;99.90;;;;;;5529042;25;20467;-60
2024/04/17 03:57:30;;;;;;;15.53;8.20;;;3.60;99.90;;;;;;5530095;25;20460;-60
2024/04/17 04:00:02;;;;;;;19.73;8.83;;;3.60;99.90;;;;;;5530093;25;20388;-60
2024/04/17 04:02:28;;;;;;;17.70;8.03;;;3.60;99.90;;;;;;5530240;25;20508;-60
2024/04/17 04:04:57;;;;;;;13.97;7.83;;;3.70;99.90;;;;;;5530311;25;20455;-60
2024/04/17 04:07:23;;;;;;;22.47;8.57;;;3.60;99.90;;;;;;5530369;25;20447;-60
2024/04/17 04:09:52;;;;;;;16.00;8.60;;;3.70;99.90;;;;;;5529887;25;20809;-60
2024/04/17 04:12:18;;;;;;;17.83;9.40;;;3.70;99.90;;;;;;5529848;25;20537;-61
2024/04/17 04:14:47;;;;;;;17.73;9.10;;;3.70;99.90;;;;;;5529993;25;20462;-60
2024/04/17 04:17:16;;;;;;;13.30;9.60;;;3.70;99.90;;;;;;5530103;25;20499;-60
2024/04/17 04:19:46;;;;;;;18.03;9.77;;;3.70;99.90;;;;;;5529368;25;20454;-60
2024/04/17 04:22:12;;;;;;;22.13;9.57;;;3.70;1.00;;;;;;5529358;25;20451;-60
2024/04/17 04:24:42;;;;;;;12.63;10.13;;;3.80;1.00;;;;;;5529266;25;20388;-60
2024/04/17 04:27:10;;;;;;;18.10;9.23;;;3.80;1.00;;;;;;5529450;25;20730;-60
2024/04/17 04:29:38;;;;;;;18.13;9.40;;;3.80;1.00;;;;;;5529193;25;20441;-60
2024/04/17 04:32:05;;;;;;;18.07;10.07;;;3.80;1.00;;;;;;5528893;25;20459;-60
2024/04/17 04:34:37;;;;;;;17.10;11.10;;;3.80;1.00;;;;;;5528885;25;20564;-61
2024/04/17 04:37:03;;;;;;;19.37;11.17;;;3.80;1.00;;;;;;5529134;25;20792;-61
2024/04/17 04:39:32;;;;;;;18.80;11.33;;;3.80;1.00;;;;;;5529143;25;20391;-61
2024/04/17 04:41:58;;;;;;;13.93;10.60;;;3.80;1.00;;;;;;5528893;25;20462;-62
2024/04/17 04:44:27;;;;;;;20.07;10.60;;;3.80;1.00;;;;;;5529008;25;20400;-62
2024/04/17 04:46:56;;;;;;;20.43;12.13;;;3.80;1.00;;;;;;5529362;25;20494;-62
2024/04/17 04:49:25;;;;;;;15.57;12.47;;;3.80;1.00;;;;;;5529377;25;20463;-62
2024/04/17 04:51:53;;;;;;;27.23;13.00;;;3.90;1.00;;;;;;5528841;25;20530;-63
2024/04/17 04:54:22;;;;;;;22.93;12.67;;;3.90;1.00;;;;;;5526882;25;20453;-62
2024/04/17 04:56:51;;;;;;;20.50;12.97;;;4.00;1.00;;;;;;5525950;25;20554;-63
2024/04/17 04:59:19;;;;;;;18.27;12.57;;;4.00;1.00;;;;;;5525519;25;20568;-63
2024/04/17 05:01:46;;;;;;;19.40;12.90;;;3.90;1.00;;;;;;5525882;25;20399;-62
2024/04/17 05:04:15;;;;;;;18.67;12.47;;;3.90;1.00;;;;;;5525668;25;20451;-63
2024/04/17 05:06:41;;;;;;;30.43;15.00;;;3.80;1.00;;;;;;5529505;25;20440;-62
2024/04/17 05:09:12;;;;;;;23.03;14.40;;;3.80;1.00;;;;;;5530370;25;20502;-63
2024/04/17 05:11:39;;;;;;;30.70;16.40;;;3.80;1.00;;;;;;5531486;25;20454;-62
2024/04/17 05:14:08;;;;;;;27.80;16.83;;;3.80;1.00;;;;;;5532382;25;20451;-62
2024/04/17 05:16:34;;;;;;;29.10;17.40;;;3.80;1.00;;;;;;5532141;25;20688;-63
2024/04/17 05:19:03;;;;;;;41.10;20.20;;;3.90;1.00;;;;;;5530638;25;20408;-62
2024/04/17 05:21:29;;;;;;;38.67;20.10;;;3.80;1.00;;;;;;5531116;25;20523;-62
2024/04/17 05:23:59;;;;;;;30.67;20.10;;;3.80;1.00;;;;;;5532218;25;20908;-62
2024/04/17 05:26:28;;;;;;;35.07;22.13;;;3.80;1.00;;;;;;5532544;25;20392;-62
2024/04/17 05:28:57;;;;;;;42.10;22.30;;;3.90;1.00;;;;;;5532315;25;20502;-62
2024/04/17 05:31:23;;;;;;;35.23;20.60;;;3.90;1.00;;;;;;5532318;25;20501;-62
2024/04/17 05:33:52;;;;;;;37.20;24.13;;;3.90;1.00;;;;;;5531494;25;20392;-62
2024/04/17 05:36:18;;;;;;;50.13;23.60;;;4.00;1.00;;;;;;5532321;25;20454;-62
2024/04/17 05:38:47;;;;;;;43.10;23.53;;;4.00;1.00;;;;;;5531794;25;20556;-63
2024/04/17 05:41:13;;;;;;;41.33;22.73;;;4.00;1.00;;;;;;5531208;25;20452;-62
2024/04/17 05:43:45;;;;;;;41.07;22.53;;;4.10;1.00;;;;;;5530137;25;20471;-63
2024/04/17 05:46:11;;;;;;;39.80;25.10;;;4.10;1.00;;;;;;5528564;26;20472;-63
2024/04/17 05:48:41;;;;;;;49.17;26.50;;;4.10;1.00;;;;;;5530884;25;20952;-63
2024/04/17 05:51:07;;;;;;;49.20;25.40;;;4.20;1.00;;;;;;5530622;25;20463;-63
2024/04/17 05:53:36;;;;;;;49.33;27.13;;;4.20;1.00;;;;;;5531036;25;20468;-63
2024/04/17 05:56:02;;;;;;;49.23;27.17;;;4.30;1.00;;;;;;5526505;25;20502;-63
2024/04/17 05:58:32;;;;;;;48.47;27.27;;;4.30;1.00;;;;;;5526671;25;20880;-63
2024/04/17 06:01:01;;;;;;;43.83;23.73;;;4.30;1.00;;;;;;5527555;25;20443;-63
2024/04/17 06:03:31;;;;;;;44.80;24.50;;;4.20;1.00;;;;;;5528054;25;20458;-64
2024/04/17 06:05:57;;;;;;;46.10;23.00;;;4.30;6.00;;;;;;5528602;25;20384;-63
2024/04/17 06:08:26;;;;;;;43.17;23.83;;;4.40;45.90;;;;;;5528350;25;20580;-63
2024/04/17 06:10:52;;;;;;;42.37;22.40;;;4.50;90.90;;;;;;5528326;25;20439;-63
2024/04/17 06:13:22;;;;;;;38.20;21.43;;;4.60;99.90;;;;;;5528758;25;20400;-63
2024/04/17 06:15:49;;;;;;;43.03;23.30;;;4.70;99.90;;;;;;5527999;25;20722;-64
2024/04/17 06:18:20;;;;;;;39.77;22.67;;;5.00;99.90;;;;;;5528268;25;20456;-63
2024/04/17 06:20:46;;;;;;;39.40;21.80;;;5.00;99.90;;;;;;5528929;25;20437;-63
2024/04/17 06:23:15;;;;;;;39.90;20.63;;;5.20;99.90;;;;;;5529270;25;20476;-62
2024/04/17 06:25:42;;;;;;;32.27;18.40;;;5.30;99.90;;;;;;5530064;25;20400;-63
2024/04/17 06:28:11;;;;;;;28.73;18.33;;;5.30;99.90;;;;;;5531005;25;20474;-62
2024/04/17 06:30:37;;;;;;;25.80;16.83;;;5.50;99.90;;;;;;5531349;25;20459;-62
2024/04/17 06:33:06;;;;;;;30.33;18.47;;;5.60;99.90;;;;;;5531280;25;20503;-62
2024/04/17 06:35:36;;;;;;;23.40;16.87;;;5.80;99.90;;;;;;5531421;25;20789;-62
2024/04/17 06:38:05;;;;;;;25.83;17.00;;;5.90;99.90;;;;;;5531246;25;20470;-62
2024/04/17 06:40:31;;;;;;;23.80;15.27;;;6.10;99.90;;;;;;5529393;25;20838;-62
2024/04/17 06:43:00;;;;;;;23.10;14.83;;;6.10;35.70;;;;;;5529162;25;20560;-61
2024/04/17 06:45:26;;;;;;;24.37;14.83;;;6.10;1.00;;;;;;5530650;25;20451;-62
2024/04/17 06:47:57;;;;;;;27.47;14.80;;;6.00;99.90;;;;;;5530119;25;20455;-62
2024/04/17 06:50:24;;;;;;;29.70;15.40;;;6.00;99.90;;;;;;5527835;25;20455;-62
2024/04/17 06:52:55;;;;;;;27.50;14.97;;;6.30;99.90;;;;;;5531110;25;20481;-61
2024/04/17 06:55:22;;;;;;;21.83;15.10;;;6.20;1.00;;;;;;5531114;25;20521;-61
2024/04/17 06:57:51;;;;;;;32.33;16.03;;;6.10;1.00;;;;;;5530628;25;20434;-61
2024/04/17 07:00:20;;;;;;;30.70;17.30;;;6.10;99.90;;;;;;5530890;25;20502;-62
2024/04/17 07:02:49;;;;;;;25.87;17.57;;;6.10;7.40;;;;;;5530758;25;20458;-62
2024/04/17 07:05:16;;;;;;;26.07;16.23;;;6.00;1.00;;;;;;5530728;25;20432;-61
2024/04/17 07:07:45;;;;;;;24.00;15.60;;;5.80;1.00;;;;;;5530228;25;20464;-62
2024/04/17 07:10:14;;;;;;;26.10;18.53;;;5.70;99.90;;;;;;5528667;25;20501;-62
2024/04/17 07:12:43;;;;;;;30.67;21.97;;;5.70;1.00;;;;;;5527974;25;20892;-63
2024/04/17 07:15:09;;;;;;;23.93;20.27;;;5.50;99.90;;;;;;5529441;25;20563;-67
2024/04/17 07:17:38;;;;;;;28.27;21.60;;;5.50;99.90;;;;;;5528884;25;20448;-67
2024/04/17 07:20:09;;;;;;;31.93;21.80;;;5.30;1.00;;;;;;5530129;25;20464;-67
2024/04/17 07:22:38;;;;;;;27.83;20.83;;;5.50;99.90;;;;;;5530105;25;20454;-66
2024/04/17 07:25:07;;;;;;;29.67;21.07;;;5.50;99.90;;;;;;5530050;25;20388;-67
2024/04/17 07:27:39;;;;;;;32.30;24.33;;;5.50;99.90;;;;;;5527416;25;20463;-67
2024/04/17 07:30:07;;;;;;;35.27;23.10;;;5.50;99.90;;;;;;5526929;25;20443;-66
2024/04/17 07:32:36;;;;;;;29.10;22.50;;;5.50;73.80;;;;;;5526983;25;20459;-65
2024/04/17 07:35:02;;;;;;;24.87;19.40;;;5.60;99.90;;;;;;5527063;25;20432;-64
2024/04/17 07:37:31;;;;;;;26.23;19.70;;;5.60;99.90;;;;;;5526606;25;20408;-66
2024/04/17 07:39:58;;;;;;;26.67;20.57;;;5.70;99.90;;;;;;5527403;26;20493;-66
2024/04/17 07:42:29;;;;;;;22.90;19.17;;;5.80;99.90;;;;;;5528191;25;20507;-66
2024/04/17 07:44:58;;;;;;;22.73;18.70;;;5.70;99.90;;;;;;5530248;25;20454;-66
2024/04/17 07:47:27;;;;;;;26.83;20.90;;;5.60;3.20;;;;;;5529866;25;20458;-67
2024/04/17 07:49:53;;;;;;;21.70;18.00;;;5.50;1.00;;;;;;5529667;25;20447;-67
2024/04/17 07:52:23;;;;;;;23.80;18.20;;;5.50;1.00;;;;;;5529682;25;20458;-65
2024/04/17 07:54:49;;;;;;;20.30;16.67;;;5.50;1.00;;;;;;5529917;25;20510;-66
2024/04/17 07:57:18;;;;;;;16.87;15.07;;;5.50;1.00;;;;;;5529159;25;20459;-65
2024/04/17 07:59:45;;;;;;;20.47;15.87;;;5.70;99.90;;;;;;5529418;25;20452;-65
2024/04/17 08:02:16;;;;;;;16.27;13.57;;;5.60;1.00;;;;;;5529782;25;20497;-66
2024/04/17 08:04:43;;;;;;;17.73;14.47;;;5.60;4.50;;;;;;5529810;25;20449;-66
2024/04/17 08:07:12;;;;;;;17.23;13.90;;;5.60;1.00;;;;;;5529935;25;20508;-66
2024/04/17 08:09:39;;;;;;;15.33;12.70;;;5.60;1.00;;;;;;5529908;25;20451;-66
2024/04/17 08:12:09;;;;;;;14.57;11.57;;;5.60;1.00;;;;;;5529454;25;20444;-67
2024/04/17 08:14:35;;;;;;;18.03;14.67;;;5.50;1.00;;;;;;5529246;25;20392;-66
2024/04/17 08:17:04;;;;;;;17.03;12.23;;;5.50;1.00;;;;;;5529431;25;20396;-65
2024/04/17 08:19:36;;;;;;;15.83;13.20;;;5.50;1.00;;;;;;5529458;25;20491;-65
2024/04/17 08:22:05;;;;;;;16.03;14.33;;;5.40;1.00;;;;;;5529162;25;20593;-65
2024/04/17 08:24:32;;;;;;;19.10;16.50;;;5.40;1.00;;;;;;5529221;25;20393;-64
2024/04/17 08:27:01;;;;;;;17.50;15.60;;;5.40;1.00;;;;;;5529427;25;20502;-63
2024/04/17 08:29:27;;;;;;;18.30;16.27;;;5.50;99.90;;;;;;5529373;25;20456;-64
2024/04/17 08:31:56;;;;;;;20.40;17.40;;;5.50;99.90;;;;;;5528785;25;20587;-63
2024/04/17 08:34:22;;;;;;;19.17;17.27;;;5.60;99.90;;;;;;5528918;25;20444;-62
2024/04/17 08:36:54;;;;;;;18.77;15.87;;;5.70;99.90;;;;;;5528769;25;20482;-63
2024/04/17 08:39:21;;;;;;;19.40;15.10;;;5.80;99.90;;;;;;5528561;25;20497;-63
2024/04/17 08:41:51;;;;;;;16.23;14.30;;;5.80;99.90;;;;;;5528670;25;20827;-65
2024/04/17 08:44:22;;;;;;;16.03;14.33;;;6.00;1.00;;;;;;5528491;25;20392;-65
2024/04/17 08:46:53;;;;;;;17.27;13.83;;;6.30;25.10;;;;;;5526373;26;20878;-64
2024/04/17 08:49:21;;;;;;;15.90;12.30;;;6.50;31.50;;;;;;5525511;25;20388;-63
2024/04/17 08:51:50;;;;;;;15.00;12.33;;;6.80;1.00;;;;;;5525692;25;20497;-63
2024/04/17 08:54:20;;;;;;;11.97;10.40;;;6.90;99.90;;;;;;5528027;25;20999;-61
2024/04/17 08:56:49;;;;;;;13.30;11.17;;;6.80;99.90;;;;;;5528544;25;20797;-61
2024/04/17 08:59:15;;;;;;;13.40;11.83;;;6.90;99.90;;;;;;5528154;25;20772;-62
2024/04/17 09:01:44;;;;;;;15.50;12.57;;;6.90;1.00;;;;;;5528355;25;20946;-62
2024/04/17 09:04:12;;;;;;;14.53;13.00;;;6.80;1.00;;;;;;5528205;25;20444;-62
2024/04/17 09:06:42;;;;;;;15.00;12.57;;;6.60;1.00;;;;;;5528216;25;20448;-61
2024/04/17 09:09:13;;;;;;;15.87;13.93;;;6.70;1.00;;;;;;5528491;25;20488;-63
2024/04/17 09:11:47;;;;;;;20.50;14.73;;;6.50;1.00;;;;;;5525442;25;20825;-62
2024/04/17 09:14:14;;;;;;;17.83;13.70;;;6.40;1.00;;;;;;5525110;25;20395;-61
2024/04/17 09:16:44;;;;;;;15.70;14.10;;;6.20;99.90;;;;;;5524632;25;20460;-62
2024/04/17 09:19:10;;;;;;;18.43;14.00;;;6.10;1.00;;;;;;5525062;25;20691;-63
2024/04/17 09:21:41;;;;;;;14.57;13.07;;;6.20;44.20;;;;;;5525288;25;20443;-61
2024/04/17 09:24:08;;;;;;;15.00;13.50;;;6.40;99.90;;;;;;5525044;25;20392;-59
2024/04/17 09:26:38;;;;;;;12.43;11.13;;;6.40;99.90;;;;;;5527364;25;20960;-60
2024/04/17 09:29:07;;;;;;;9.90;9.00;;;6.60;99.90;;;;;;5528063;25;20817;-60
2024/04/17 09:31:36;;;;;;;11.33;10.07;;;6.60;1.00;;;;;;5528208;25;20454;-61
2024/04/17 09:34:03;;;;;;;8.43;7.50;;;6.90;54.70;;;;;;5527979;25;20392;-62
2024/04/17 09:36:31;;;;;;;9.20;7.37;;;7.20;99.90;;;;;;5527498;25;20459;-62
2024/04/17 09:38:58;;;;;;;5.70;5.03;;;7.00;99.90;;;;;;5527613;25;20439;-65
2024/04/17 09:41:29;;;;;;;8.87;5.67;;;6.60;99.90;;;;;;5527960;25;20506;-65
2024/04/17 09:43:57;;;;;;;7.43;5.10;;;6.50;99.90;;;;;;5527237;25;20502;-65
2024/04/17 09:46:31;;;;;;;5.00;3.27;;;6.70;1.00;;;;;;5520857;26;20471;-65
2024/04/17 09:49:01;;;;;;;3.50;2.93;;;6.80;1.00;;;;;;5524638;25;20739;-65
2024/04/17 09:51:34;;;;;;;4.87;3.43;;;6.70;99.90;;;;;;5527553;25;20526;-65
2024/04/17 09:54:02;;;;;;;4.20;3.60;;;6.80;1.00;;;;;;5530941;25;20912;-65
2024/04/17 09:56:32;;;;;;;4.57;3.93;;;7.00;1.00;;;;;;5529563;25;20446;-64
2024/04/17 09:58:59;;;;;;;6.47;4.47;;;6.90;99.90;;;;;;5531369;25;20455;-65
2024/04/17 10:01:32;;;;;;;6.30;4.97;;;6.60;99.90;;;;;;5530851;25;20490;-64
2024/04/17 10:04:00;;;;;;;5.90;4.03;;;6.90;1.00;;;;;;5527244;25;20511;-65
2024/04/17 10:06:30;;;;;;;3.70;3.30;;;6.90;99.90;;;;;;5528117;25;20455;-63
2024/04/17 10:08:59;;;;;;;4.87;4.00;;;6.90;1.00;;;;;;5527994;25;20502;-64
2024/04/17 10:11:29;;;;;;;4.00;3.30;;;7.10;99.90;;;;;;5527661;25;20902;-60
2024/04/17 10:13:56;;;;;;;4.67;3.90;;;7.20;99.90;;;;;;5527476;25;20817;-62
2024/04/17 10:16:26;;;;;;;5.27;3.47;;;7.70;1.00;;;;;;5526980;25;20519;-60
2024/04/17 10:18:55;;;;;;;3.60;2.73;;;7.70;1.00;;;;;;5531059;25;20451;-61
2024/04/17 10:21:24;;;;;;;4.27;3.20;;;7.70;38.70;;;;;;5529181;25;20455;-61
2024/04/17 10:24:00;;;;;;;3.90;3.13;;;7.70;99.90;;;;;;5529233;25;20526;-61
2024/04/17 10:26:38;;;;;;;4.70;3.30;;;8.00;99.90;;;;;;5529163;25;20522;-61
2024/04/17 10:29:05;;;;;;;3.50;2.80;;;8.00;99.90;;;;;;5529305;25;20445;-60
2024/04/17 10:31:37;;;;;;;4.50;3.00;;;8.10;99.90;;;;;;5529507;25;20447;-61
2024/04/17 10:34:06;;;;;;;4.10;3.13;;;8.60;1.00;;;;;;5528315;25;20392;-60
2024/04/17 10:36:36;;;;;;;5.33;2.50;;;9.00;99.90;;;;;;5528684;25;20479;-59
2024/04/17 10:39:04;;;;;;;3.70;2.40;;;9.40;99.90;;;;;;5527020;25;20440;-60
2024/04/17 10:41:33;;;;;;;3.70;3.00;;;8.80;99.90;;;;;;5529240;25;20444;-59
2024/04/17 10:44:00;;;;;;;5.53;2.57;;;8.10;1.00;;;;;;5528979;25;20582;-59
2024/04/17 10:46:33;;;;;;;6.60;3.20;;;8.10;1.00;;;;;;5528606;25;20479;-58
2024/04/17 10:48:59;;;;;;;5.57;3.30;;;8.00;1.00;;;;;;5529069;25;20388;-58
2024/04/17 10:51:32;;;;;;;5.60;2.50;;;7.80;71.50;;;;;;5528583;25;20802;-58
2024/04/17 10:54:00;;;;;;;3.97;2.50;;;7.70;1.00;;;;;;5528742;25;20446;-58
2024/04/17 10:56:29;;;;;;;4.60;2.90;;;7.60;99.90;;;;;;5528881;25;20510;-57
2024/04/17 10:58:58;;;;;;;5.57;3.00;;;7.70;1.00;;;;;;5528846;25;20400;-55
2024/04/17 11:01:27;;;;;;;6.40;3.50;;;8.00;1.00;;;;;;5528959;25;20593;-58
2024/04/17 11:03:53;;;;;;;6.17;3.20;;;8.70;12.10;;;;;;5528570;25;20542;-57
2024/04/17 11:06:22;;;;;;;5.53;3.20;;;8.80;99.90;;;;;;5528239;25;20448;-58
2024/04/17 11:08:52;;;;;;;5.50;3.23;;;8.90;99.90;;;;;;5524964;25;20449;-58
2024/04/17 11:11:21;;;;;;;2.90;2.40;;;9.60;1.00;;;;;;5524627;25;20459;-57
2024/04/17 11:13:48;;;;;;;4.33;2.77;;;9.80;99.90;;;;;;5525004;25;20748;-58
2024/04/17 11:16:17;;;;;;;5.33;2.90;;;9.50;1.00;;;;;;5525090;25;20515;-57
2024/04/17 11:18:44;;;;;;;4.67;2.70;;;9.40;99.90;;;;;;5525169;25;20912;-57
2024/04/17 11:21:13;;;;;;;5.80;2.40;;;9.70;99.90;;;;;;5525484;25;20511;-57
2024/04/17 11:23:40;;;;;;;3.80;2.50;;;9.50;99.90;;;;;;5527373;25;20505;-55
2024/04/17 11:26:12;;;;;;;6.33;3.10;;;9.50;80.40;;;;;;5498623;25;20527;-56
2024/04/17 11:28:40;;;;;;;5.60;2.97;;;9.70;99.90;;;;;;5490138;26;20506;-57
2024/04/17 11:31:11;;;;;;;5.60;2.83;;;10.40;1.00;;;;;;5488477;26;20513;-58
2024/04/17 11:33:38;;;;;;;4.30;2.77;;;11.00;99.90;;;;;;5486996;26;20468;-58
2024/04/17 11:36:11;;;;;;;5.50;2.20;;;11.60;1.00;;;;;;5488393;26;20714;-58
2024/04/17 11:38:38;;;;;;;4.63;2.53;;;11.70;99.90;;;;;;5488847;26;20909;-58
2024/04/17 11:41:07;;;;;;;3.63;2.10;;;11.80;99.90;;;;;;5488768;26;20460;-58
2024/04/17 11:43:36;;;;;;;4.67;2.13;;;11.20;1.00;;;;;;5488674;26;20520;-58
2024/04/17 11:46:06;;;;;;;3.13;2.83;;;9.40;99.90;;;;;;5488665;26;20524;-61
2024/04/17 11:48:32;;;;;;;5.07;2.40;;;7.60;99.90;;;;;;5491202;26;20536;-63
2024/04/17 11:51:01;;;;;;;3.33;2.43;;;6.40;99.90;;;;;;5491612;26;20398;-63
2024/04/17 11:53:28;;;;;;;3.17;2.10;;;6.10;1.00;;;;;;5491092;26;20563;-62
2024/04/17 11:55:58;;;;;;;5.20;2.63;;;6.30;99.90;;;;;;5490150;26;21074;-63
2024/04/17 11:58:24;;;;;;;3.07;2.53;;;6.70;99.90;;;;;;5489390;26;20460;-64
2024/04/17 12:00:56;;;;;;;3.90;2.27;;;6.90;99.90;;;;;;5487461;26;20517;-62
2024/04/17 12:03:22;;;;;;;4.53;2.27;;;7.10;1.00;;;;;;5490843;26;20461;-61
2024/04/17 12:05:51;;;;;;;3.47;2.00;;;7.50;1.00;;;;;;5522955;25;20471;-61
2024/04/17 12:08:18;;;;;;;3.77;2.20;;;7.90;1.00;;;;;;5525077;25;20512;-61
2024/04/17 12:10:47;;;;;;;3.67;2.30;;;8.40;99.90;;;;;;5525347;25;20404;-62
2024/04/17 12:13:14;;;;;;;3.60;2.30;;;8.80;1.00;;;;;;5527124;25;20505;-62
2024/04/17 12:15:43;;;;;;;4.63;2.60;;;9.20;1.00;;;;;;5526297;25;20853;-61
2024/04/17 12:18:13;;;;;;;3.60;2.23;;;9.70;1.00;;;;;;5525973;25;20797;-63
2024/04/17 12:20:43;;;;;;;7.10;2.50;;;10.00;1.00;;;;;;5523909;25;21024;-63
2024/04/17 12:23:09;;;;;;;3.70;2.50;;;10.40;1.00;;;;;;5521129;25;20385;-62
2024/04/17 12:28:23;;;;;;;3.33;2.77;;;11.60;99.90;;;;;;5525417;26;20534;-61
2024/04/17 12:30:52;;;;;;;7.17;2.57;;;12.20;99.90;;;;;;5522300;25;20985;-60
2024/04/17 12:33:25;;;;;;;3.37;2.60;;;12.50;99.90;;;;;;5523783;25;20450;-60
2024/04/17 12:35:54;;;;;;;4.33;3.23;;;12.50;99.90;;;;;;5525760;25;20443;-60
2024/04/17 12:38:24;;;;;;;3.07;2.60;;;12.40;99.90;;;;;;5527431;25;20455;-59
2024/04/17 12:40:53;;;;;;;3.70;2.90;;;11.60;99.90;;;;;;5528869;25;20751;-59
2024/04/17 12:43:22;;;;;;;3.10;2.70;;;10.40;99.90;;;;;;5513157;25;20841;-59
2024/04/17 12:45:54;;;;;;;4.37;2.83;;;9.60;99.90;;;;;;5495228;26;20472;-58
2024/04/17 12:48:26;;;;;;;5.20;3.10;;;7.80;1.00;;;;;;5527318;25;20743;-57
2024/04/17 12:50:56;;;;;;;3.67;2.80;;;7.20;58.20;;;;;;5528547;25;20948;-58
2024/04/17 12:53:25;;;;;;;3.40;2.10;;;7.10;1.00;;;;;;5528491;25;20447;-58
2024/04/17 12:55:54;;;;;;;5.43;3.23;;;7.80;99.90;;;;;;5528236;25;20664;-57